Terminal Aerodrome Forecast
Issued by NWS

Home | Current Version | Previous Version | Graphics & Text | Print | Product List | Glossary On
Versions: 1 2 3 4 5 6 7 8 9 10 11 12 13 14 15
078
FTUS43 KABR 032337
TAFPIR
TAF
KPIR 032337Z 0400/0424 30012KT P6SM OVC030
     FM040200 25007KT P6SM SCT100 BKN250
     FM041500 30007KT P6SM FEW100=

USA.gov is the U.S. government's official web portal to all federal, state and local government web resources and services.